Flight Track Log - Related Links

Times and Time Zones

All times are in EDT time to prevent confusion due to time zone crossing. See the UAL3821 flight status page for this flight to view local times or setup timezone preferences in your user account.


Time Position Orientation Groundspeed Altitude Reporting Facility
EDT Latitude Longitude Course Direction KTS MPH feet Rate Location/Type
Tue 10:28:55 PM 35.8497 -78.8183 11° North 164 189 1,600  Level Washington Center
Tue 10:29:55 PM 35.8336 -78.8739 250° West 205 236 3,400 2,033 Climbing Washington Center
Tue 10:30:56 PM 35.8314 -78.9558 268° West 253 291 5,700 2,311 Climbing Washington Center
Tue 10:31:57 PM 35.8289 -79.0403 268° West 255 293 8,100 2,244 Climbing Washington Center
Tue 10:32:59 PM 35.8450 -79.1281 283° West 271 312 10,300 1,714 Climbing Washington Center
Tue 10:33:00 PM 36.3019 -78.6160 15° North  Level FlightAware Approximate
Tue 10:33:56 PM 35.8761 -79.2089 295° West 292 336 11,500  Level Washington Center
Tue 10:34:00 PM 36.3911 -78.5897 11° North  Level FlightAware Approximate
Tue 10:34:57 PM 35.9736 -79.2264 352° North 286 329 13,400  Level Washington Center
Tue 10:35:58 PM 36.0644 -79.1944 16° North 343 395 14,000 303 Climbing Washington Center
Tue 10:36:56 PM 36.1431 -79.0719 52° Northeast 359 413 14,000  Level Washington Center
Tue 10:37:58 PM 36.2067 -78.9642 54° Northeast 393 452 14,000 541 Level Washington Center
Tue 10:38:58 PM 36.2811 -78.8333 55° Northeast 420 483 15,100 1,400 Climbing Washington Center
Tue 10:39:58 PM 36.3447 -78.7175 56° Northeast 419 482 16,800 1,424 Climbing Washington Center
Tue 10:40:56 PM 36.4078 -78.6192 51° Northeast 414 476 17,900 1,160 Climbing Washington Center
Tue 10:41:57 PM 36.5053 -78.5611 26° Northeast 389 448 19,100 1,180 Climbing Washington Center
Tue 10:42:58 PM 36.6147 -78.5211 16° North 382 440 20,300 1,210 Climbing Washington Center
Tue 10:43:56 PM 36.7222 -78.4786 18° North 394 453 21,500 1,271 Climbing Washington Center
Tue 10:44:56 PM 36.8347 -78.3972 30° Northeast 399 459 22,800 1,240 Climbing Washington Center
Tue 10:45:57 PM 36.9325 -78.3150 34° Northeast 415 478 24,000 1,180 Climbing Washington Center
Tue 10:46:58 PM 37.0367 -78.2275 34° Northeast 430 495 25,200 1,160 Climbing Washington Center
Tue 10:47:56 PM 37.1325 -78.1422 35° Northeast 430 495 26,300 1,160 Climbing Washington Center
Tue 10:48:57 PM 37.2322 -78.0544 35° Northeast 430 495 27,500 1,091 Climbing Washington Center
Tue 10:49:57 PM 37.3319 -77.9714 34° Northeast 430 495 28,500 744 Climbing Washington Center
Tue 10:50:58 PM 37.4319 -77.8803 36° Northeast 430 495 29,000 248 Climbing Washington Center
Tue 10:51:58 PM 37.5378 -77.7892 34° Northeast 441 507 29,000  Level Washington Center
Tue 10:52:56 PM 37.6458 -77.6953 35° Northeast 458 527 29,000  Level Washington Center
Tue 10:53:56 PM 37.7581 -77.5958 35° Northeast 477 549 29,000  Level Washington Center
Tue 10:54:57 PM 37.8703 -77.4964 35° Northeast 482 555 29,000  Level Washington Center
Tue 10:55:57 PM 37.9825 -77.3939 36° Northeast 488 562 29,000  Level Washington Center
Tue 10:56:58 PM 38.0839 -77.3064 34° Northeast 488 562 29,000  Level Washington Center
Tue 10:57:58 PM 38.1978 -77.2061 35° Northeast 488 562 29,000  Level Washington Center
Tue 10:58:57 PM 38.3117 -77.1028 35° Northeast 502 578 29,000  Level Washington Center
Tue 10:59:58 PM 38.4236 -76.9989 36° Northeast 495 570 29,000  Level Washington Center
Tue 11:00:58 PM 38.5372 -76.8975 35° Northeast 495 570 29,000  Level Washington Center
Tue 11:01:56 PM 38.6508 -76.7933 36° Northeast 495 570 29,000  Level Washington Center
Tue 11:02:57 PM 38.7603 -76.6831 38° Northeast 500 575 29,000  Level Washington Center
Tue 11:03:58 PM 38.8636 -76.5619 42° Northeast 495 570 29,000  Level Washington Center
Tue 11:04:56 PM 38.9686 -76.4458 41° Northeast 500 575 29,000 -50 Level Washington Center
Tue 11:05:57 PM 39.0675 -76.3294 42° Northeast 487 560 28,900 -393 Descending Washington Center
Tue 11:06:58 PM 39.1681 -76.2100 43° Northeast 481 554 28,200 -893 Descending Washington Center
Tue 11:07:58 PM 39.2769 -76.0850 42° Northeast 481 554 27,100 -1,068 Descending Washington Center
Tue 11:08:56 PM 39.3692 -75.9756 43° Northeast 462 532 26,100 -950 Descending Washington Center
Tue 11:09:58 PM 39.4633 -75.8631 43° Northeast 455 524 25,200 -950 Descending Washington Center
Tue 11:10:56 PM 39.5592 -75.7531 41° Northeast 455 524 24,200 -966 Descending Washington Center
Tue 11:11:56 PM 39.6553 -75.6400 42° Northeast 455 524 23,300 -1,636 Descending Washington Center
Tue 11:12:57 PM 39.7469 -75.5267 44° Northeast 455 524 20,900 -2,500 Descending Washington Center
Tue 11:13:56 PM 39.8342 -75.4211 43° Northeast 445 512 18,300 -2,350 Descending Washington Center
Tue 11:14:57 PM 39.9217 -75.3211 41° Northeast 434 499 16,200 -1,967 Descending Washington Center
Tue 11:15:58 PM 39.9964 -75.2231 45° Northeast 423 487 14,300 -2,017 Descending Washington Center
Tue 11:16:56 PM 40.0772 -75.1253 43° Northeast 411 473 12,200 -1,584 Descending Washington Center
Tue 11:18:03 PM 40.1667 -75.0167 43° Northeast 333 383 11,000 -992 Descending New York TRACON
Tue 11:19:03 PM 40.2167 -74.9333 52° Northeast 323 372 10,100 -947 Descending New York TRACON
Tue 11:19:57 PM 40.2667 -74.8333 57° Northeast 318 366 9,200 -1,000 Descending New York TRACON
Tue 11:20:57 PM 40.3000 -74.7333 66° East 301 346 8,200 -1,048 Descending New York TRACON
Tue 11:22:03 PM 40.3500 -74.6500 52° Northeast 288 331 7,000 -1,050 Descending New York TRACON
Tue 11:22:57 PM 40.3833 -74.5667 62° Northeast 284 327 6,100 -1,000 Descending New York TRACON
Tue 11:23:57 PM 40.4167 -74.4833 62° Northeast 255 293 5,100 -1,048 Descending New York TRACON
Tue 11:25:03 PM 40.4667 -74.4000 52° Northeast 242 278 3,900 -1,100 Descending New York TRACON
Tue 11:25:57 PM 40.5000 -74.3333 57° Northeast 241 277 2,900 -526 Descending New York TRACON
Tue 11:26:57 PM 40.5333 -74.2667 57° Northeast 222 255 2,900 -300 Level New York TRACON
Tue 11:27:57 PM 40.5833 -74.2333 27° Northeast 208 239 2,300 -750 Descending New York TRACON
Tue 11:28:57 PM 40.6167 -74.2000 37° Northeast 129 148 1,400 -800 Descending New York TRACON
Tue 11:29:57 PM 40.6500 -74.1833 21° North 121 139 700 -700 Descending New York TRACON

Login

Don't have an account? Register now (free) for customized features, flight alerts, and more!